createdAt,value
2022-07-29T00:00:32.379Z,15.90
2022-07-29T00:22:08.010Z,15.80
2022-07-29T00:24:40.779Z,15.70
2022-07-29T00:27:09.772Z,15.70
2022-07-29T00:30:08.072Z,15.70
2022-07-29T00:32:54.390Z,15.70
2022-07-29T00:35:21.076Z,15.60
2022-07-29T00:41:19.141Z,15.60
2022-07-29T00:46:49.642Z,15.60
2022-07-29T00:56:00.019Z,15.50
2022-07-29T00:59:03.315Z,15.60
2022-07-29T01:08:57.520Z,15.50
2022-07-29T01:11:30.146Z,15.50
2022-07-29T01:17:25.175Z,15.50
2022-07-29T01:20:10.677Z,15.40
2022-07-29T01:26:45.992Z,15.40
2022-07-29T01:32:42.303Z,15.30
2022-07-29T01:35:56.535Z,15.30
2022-07-29T02:23:07.489Z,15.10
2022-07-29T02:35:19.295Z,15.00
2022-07-29T02:38:07.091Z,15.00
2022-07-29T02:43:44.139Z,15.00
2022-07-29T02:46:59.598Z,15.00
2022-07-29T02:59:23.287Z,15.00
2022-07-29T03:02:13.984Z,14.90
2022-07-29T03:04:43.200Z,14.90
2022-07-29T03:07:12.020Z,14.90
2022-07-29T03:09:43.742Z,14.90
2022-07-29T03:12:12.564Z,14.90
2022-07-29T03:14:49.300Z,14.90
2022-07-29T03:17:16.436Z,14.90
2022-07-29T03:19:48.710Z,14.80
2022-07-29T03:22:15.871Z,14.80
2022-07-29T03:25:28.614Z,14.80
2022-07-29T03:31:07.231Z,14.80
2022-07-29T03:36:52.781Z,14.70
2022-07-29T03:42:46.062Z,14.70
2022-07-29T03:48:23.125Z,14.60
2022-07-29T03:54:20.044Z,14.60
2022-07-29T03:56:56.118Z,14.60
2022-07-29T03:59:28.752Z,14.60
2022-07-29T04:02:23.626Z,14.60
2022-07-29T04:04:52.032Z,14.60
2022-07-29T04:07:18.761Z,14.60
2022-07-29T04:12:46.711Z,14.60
2022-07-29T04:15:18.671Z,14.60
2022-07-29T04:17:47.971Z,14.60
2022-07-29T04:20:33.911Z,14.60
2022-07-29T04:23:03.773Z,14.60
2022-07-29T04:25:42.711Z,14.60
2022-07-29T04:28:26.563Z,14.60
2022-07-29T04:31:04.962Z,14.60
2022-07-29T04:33:31.776Z,14.60
2022-07-29T04:36:04.557Z,14.70
2022-07-29T04:38:54.057Z,14.60
2022-07-29T04:41:35.287Z,14.70
2022-07-29T04:44:17.682Z,14.70
2022-07-29T04:46:45.822Z,14.70
2022-07-29T04:49:27.824Z,14.70
2022-07-29T04:51:54.878Z,14.70
2022-07-29T04:54:21.585Z,14.70
2022-07-29T04:56:57.254Z,14.70
2022-07-29T05:00:00.182Z,14.80
2022-07-29T05:02:41.724Z,14.80
2022-07-29T05:05:11.152Z,14.80
2022-07-29T05:07:37.872Z,14.80
2022-07-29T05:17:07.340Z,14.90
2022-07-29T05:19:52.125Z,14.90
2022-07-29T05:29:01.218Z,14.90
2022-07-29T05:31:51.113Z,14.90
2022-07-29T05:34:21.133Z,14.90
2022-07-29T05:37:38.100Z,15.00
2022-07-29T05:46:25.366Z,15.10
2022-07-29T05:48:53.236Z,15.20
2022-07-29T05:54:07.755Z,15.30
2022-07-29T05:59:18.038Z,15.40
2022-07-29T08:06:54.312Z,18.90
2022-07-29T08:16:49.803Z,20.00
2022-07-29T08:51:07.125Z,20.90
2022-07-29T08:54:08.877Z,20.80
2022-07-29T08:56:36.147Z,20.90
2022-07-29T09:05:38.087Z,20.90
2022-07-29T09:13:56.956Z,21.30
2022-07-29T09:16:57.150Z,21.40
2022-07-29T18:05:00.899Z,23.30
2022-07-29T18:07:38.246Z,23.30
2022-07-29T18:10:05.816Z,23.20
2022-07-29T18:12:32.841Z,23.00
2022-07-29T18:14:59.941Z,22.90
2022-07-29T18:17:52.895Z,22.70
2022-07-29T18:20:28.873Z,22.60
2022-07-29T18:36:25.719Z,22.10
2022-07-29T18:38:13.929Z,22.00
2022-07-29T18:39:46.759Z,21.90
2022-07-29T18:44:56.724Z,21.70
2022-07-29T18:47:52.736Z,21.60
2022-07-29T18:54:00.421Z,21.50
2022-07-29T18:56:27.290Z,21.50
2022-07-29T18:59:02.177Z,21.40
2022-07-29T19:16:07.345Z,21.20
2022-07-29T19:24:16.040Z,21.00
2022-07-29T19:26:42.838Z,20.90
2022-07-29T19:29:13.681Z,20.90
2022-07-29T19:31:43.533Z,20.80
2022-07-29T19:34:10.401Z,20.80
2022-07-29T19:36:55.659Z,20.70
2022-07-29T19:39:35.060Z,20.70
2022-07-29T19:42:58.156Z,20.70
2022-07-29T19:48:18.873Z,20.60
2022-07-29T19:50:48.341Z,20.50
2022-07-29T19:53:18.098Z,20.50
2022-07-29T19:55:50.739Z,20.50
2022-07-29T19:58:17.789Z,20.50
2022-07-29T20:00:56.413Z,20.40
2022-07-29T20:03:25.623Z,20.30
2022-07-29T20:44:09.435Z,19.80
2022-07-29T20:46:36.376Z,19.80
2022-07-29T20:49:03.267Z,19.80
2022-07-29T20:51:43.443Z,19.70
2022-07-29T21:03:44.688Z,19.40
2022-07-29T21:12:28.990Z,19.10
2022-07-29T21:15:34.417Z,19.00
2022-07-29T21:26:47.467Z,18.90
2022-07-29T21:38:57.463Z,18.70
2022-07-29T21:47:31.361Z,18.50
2022-07-29T21:50:04.636Z,18.40
2022-07-29T21:52:37.318Z,18.40
2022-07-29T21:58:23.509Z,18.30
2022-07-29T22:00:51.510Z,18.30
2022-07-29T22:03:18.812Z,18.30
2022-07-29T22:15:54.116Z,18.10
2022-07-29T22:18:24.000Z,18.10
2022-07-29T22:21:02.915Z,18.10
2022-07-29T22:23:39.656Z,18.10
2022-07-29T22:26:43.546Z,18.10
2022-07-29T22:29:46.025Z,18.00
2022-07-29T22:36:20.912Z,18.00
2022-07-29T22:41:53.654Z,17.90
2022-07-29T22:44:25.666Z,17.80
2022-07-29T22:46:55.001Z,17.80
2022-07-29T22:49:27.338Z,17.70
2022-07-29T22:52:03.738Z,17.70
2022-07-29T22:57:38.662Z,17.60
2022-07-29T23:00:08.866Z,17.60
2022-07-29T23:02:41.472Z,17.60
2022-07-29T23:08:05.635Z,17.50
2022-07-29T23:11:05.346Z,17.40
2022-07-29T23:17:21.542Z,17.30
2022-07-29T23:20:14.832Z,17.20
2022-07-29T23:22:44.265Z,17.20
2022-07-29T23:25:16.210Z,17.20
2022-07-29T23:27:43.118Z,17.20
2022-07-29T23:30:15.611Z,17.20
2022-07-29T23:35:19.854Z,17.10
2022-07-29T23:37:46.642Z,17.10
2022-07-29T23:40:22.147Z,17.10
2022-07-29T23:43:19.522Z,17.00
2022-07-29T23:45:48.813Z,17.00
2022-07-29T23:48:15.744Z,16.90
2022-07-29T23:51:24.787Z,16.90
2022-07-29T23:53:55.377Z,16.90
2022-07-29T23:56:50.150Z,16.80
2022-07-29T23:59:30.315Z,16.80
